createdAt,value
2022-12-05T00:01:36.490Z,18.98
2022-12-05T00:04:06.669Z,16.50
2022-12-05T00:06:35.793Z,17.75
2022-12-05T00:09:04.821Z,20.13
2022-12-05T00:11:40.128Z,18.67
2022-12-05T00:14:08.880Z,18.42
2022-12-05T00:16:38.305Z,19.52
2022-12-05T00:19:07.703Z,18.58
2022-12-05T00:21:37.093Z,19.13
2022-12-05T00:24:07.354Z,19.45
2022-12-05T00:26:35.211Z,17.25
2022-12-05T00:29:04.851Z,18.98
2022-12-05T00:31:32.230Z,20.80
2022-12-05T00:34:03.422Z,20.52
2022-12-05T00:36:33.892Z,18.45
2022-12-05T00:39:04.000Z,18.67
2022-12-05T00:41:31.527Z,18.77
2022-12-05T00:44:00.962Z,18.40
2022-12-05T00:46:30.691Z,20.60
2022-12-05T00:48:59.412Z,20.25
2022-12-05T00:51:32.772Z,20.27
2022-12-05T00:54:02.131Z,20.02
2022-12-05T00:56:30.996Z,20.35
2022-12-05T00:58:59.937Z,21.63
2022-12-05T01:01:39.943Z,20.95
2022-12-05T01:04:39.006Z,22.10
2022-12-05T01:07:08.574Z,20.90
2022-12-05T01:09:35.897Z,19.52
2022-12-05T01:12:03.231Z,21.13
2022-12-05T01:14:30.512Z,19.05
2022-12-05T01:16:58.055Z,21.33
2022-12-05T01:19:30.728Z,19.42
2022-12-05T01:21:58.365Z,19.27
2022-12-05T01:24:26.787Z,20.35
2022-12-05T01:26:54.661Z,20.35
2022-12-05T01:29:26.264Z,17.85
2022-12-05T01:31:54.025Z,21.45
2022-12-05T01:34:21.663Z,20.42
2022-12-05T01:36:48.937Z,24.67
2022-12-05T01:39:19.035Z,25.30
2022-12-05T01:41:48.254Z,25.20
2022-12-05T01:44:15.458Z,25.15
2022-12-05T01:46:48.721Z,25.55
2022-12-05T01:49:29.350Z,25.65
2022-12-05T01:52:02.801Z,25.77
2022-12-05T01:54:32.941Z,26.42
2022-12-05T01:57:03.811Z,23.40
2022-12-05T01:59:37.931Z,26.13
2022-12-05T02:02:06.051Z,26.52
2022-12-05T02:04:41.147Z,27.98
2022-12-05T02:07:08.452Z,27.48
2022-12-05T02:09:36.567Z,24.30
2022-12-05T02:12:04.947Z,26.52
2022-12-05T02:14:56.770Z,27.98
2022-12-05T02:17:30.475Z,26.95
2022-12-05T02:20:25.796Z,25.02
2022-12-05T02:23:32.167Z,23.60
2022-12-05T02:26:08.179Z,25.92
2022-12-05T02:28:50.478Z,26.40
2022-12-05T02:31:23.062Z,24.67
2022-12-05T02:34:16.055Z,23.35
2022-12-05T02:36:49.349Z,20.95
2022-12-05T02:39:43.743Z,23.33
2022-12-05T02:42:21.670Z,22.75
2022-12-05T02:45:01.074Z,23.50
2022-12-05T02:47:31.911Z,24.05
2022-12-05T02:50:02.133Z,23.67
2022-12-05T02:52:31.734Z,22.27
2022-12-05T02:55:03.039Z,21.15
2022-12-05T02:57:31.623Z,22.30
2022-12-05T02:59:59.158Z,24.75
2022-12-05T03:02:35.080Z,24.02
2022-12-05T03:05:21.286Z,23.52
2022-12-05T03:07:52.179Z,24.02
2022-12-05T03:10:23.780Z,23.48
2022-12-05T03:13:00.393Z,22.77
2022-12-05T03:15:36.369Z,23.75
2022-12-05T03:18:08.566Z,23.58
2022-12-05T03:21:10.681Z,23.08
2022-12-05T03:23:52.096Z,22.30
2022-12-05T03:26:31.627Z,24.15
2022-12-05T03:29:31.397Z,22.35
2022-12-05T03:32:09.855Z,23.25
2022-12-05T03:34:55.067Z,23.75
2022-12-05T03:37:27.898Z,24.42
2022-12-05T03:40:13.251Z,23.05
2022-12-05T03:42:56.088Z,20.17
2022-12-05T03:45:32.543Z,21.73
2022-12-05T03:48:18.478Z,25.42
2022-12-05T03:50:48.081Z,22.98
2022-12-05T03:53:27.911Z,24.33
2022-12-05T03:56:05.466Z,23.13
2022-12-05T03:58:41.215Z,23.20
2022-12-05T04:01:10.493Z,22.70
2022-12-05T04:03:44.762Z,24.25
2022-12-05T04:06:28.788Z,21.08
2022-12-05T04:09:16.674Z,20.58
2022-12-05T04:11:50.288Z,22.45
2022-12-05T04:14:28.287Z,22.90
2022-12-05T04:17:09.939Z,22.67
2022-12-05T04:20:09.871Z,21.15
2022-12-05T04:22:42.041Z,22.13
2022-12-05T04:25:30.956Z,21.98
2022-12-05T04:28:21.194Z,20.50
2022-12-05T04:31:07.827Z,20.42
2022-12-05T04:33:46.385Z,21.52
2022-12-05T04:36:22.893Z,22.23
2022-12-05T04:38:53.889Z,20.90
2022-12-05T04:41:27.009Z,20.77
2022-12-05T04:44:01.634Z,21.60
2022-12-05T04:46:28.973Z,22.05
2022-12-05T04:49:00.931Z,20.92
2022-12-05T04:51:34.262Z,21.75
2022-12-05T04:54:11.306Z,30.75
2022-12-05T04:56:41.244Z,23.45
2022-12-05T04:59:08.647Z,20.92
2022-12-05T05:01:48.628Z,22.88
2022-12-05T05:04:31.047Z,20.00
2022-12-05T05:06:58.370Z,18.92
2022-12-05T05:09:25.714Z,21.35
2022-12-05T05:11:52.996Z,20.10
2022-12-05T05:14:20.271Z,20.90
2022-12-05T05:16:48.454Z,22.08
2022-12-05T05:19:15.703Z,20.00
2022-12-05T05:21:43.176Z,22.85
2022-12-05T05:24:15.484Z,19.02
2022-12-05T05:26:51.170Z,20.85
2022-12-05T05:29:21.327Z,19.33
2022-12-05T05:31:50.742Z,18.17
2022-12-05T05:34:18.010Z,20.05
2022-12-05T05:36:45.302Z,20.67
2022-12-05T05:39:15.540Z,20.45
2022-12-05T05:41:45.771Z,20.58
2022-12-05T05:44:15.503Z,21.38
2022-12-05T05:46:42.762Z,20.00
2022-12-05T05:49:10.603Z,20.75
2022-12-05T05:51:37.871Z,21.60
2022-12-05T05:54:05.425Z,20.83
2022-12-05T05:56:32.855Z,22.05
2022-12-05T05:59:02.625Z,25.27
2022-12-05T06:01:30.411Z,23.23
2022-12-05T06:04:00.734Z,22.25
2022-12-05T06:06:28.225Z,22.63
2022-12-05T06:08:55.850Z,25.75
2022-12-05T06:11:26.526Z,26.35
2022-12-05T06:13:56.619Z,28.95
2022-12-05T06:16:24.980Z,28.08
2022-12-05T06:18:54.875Z,26.33
2022-12-05T06:21:23.010Z,24.30
2022-12-05T06:23:50.582Z,25.00
2022-12-05T06:26:23.043Z,24.90
2022-12-05T06:28:50.463Z,26.33
2022-12-05T06:31:23.673Z,24.70
2022-12-05T06:33:53.776Z,24.65
2022-12-05T06:36:22.402Z,27.33
2022-12-05T06:38:50.158Z,24.73
2022-12-05T06:41:19.437Z,24.73
2022-12-05T06:43:46.797Z,26.00
2022-12-05T06:46:15.389Z,26.63
2022-12-05T06:48:42.726Z,25.77
2022-12-05T06:51:12.185Z,23.30
2022-12-05T06:53:42.292Z,26.15
2022-12-05T06:56:14.888Z,26.77
2022-12-05T06:58:43.926Z,28.85
2022-12-05T07:01:35.882Z,29.35
2022-12-05T07:04:04.944Z,28.58
2022-12-05T07:06:33.800Z,27.30
2022-12-05T07:09:04.889Z,28.00
2022-12-05T07:11:32.590Z,28.63
2022-12-05T07:13:59.991Z,27.05
2022-12-05T07:16:27.534Z,28.05
2022-12-05T07:18:54.939Z,27.02
2022-12-05T07:21:22.963Z,25.95
2022-12-05T07:23:51.472Z,25.40
2022-12-05T07:26:22.449Z,26.70
2022-12-05T07:28:51.193Z,27.92
2022-12-05T07:31:22.690Z,25.00
2022-12-05T07:33:50.806Z,24.85
2022-12-05T07:36:22.951Z,24.50
2022-12-05T07:38:56.763Z,24.70
2022-12-05T07:41:29.711Z,25.35
2022-12-05T07:44:01.097Z,22.77
2022-12-05T07:46:29.330Z,26.13
2022-12-05T07:48:57.085Z,25.90
2022-12-05T07:51:24.817Z,24.38
2022-12-05T07:53:52.322Z,22.52
2022-12-05T07:56:22.036Z,23.70
2022-12-05T07:58:50.724Z,21.08
2022-12-05T08:01:24.041Z,21.75
2022-12-05T08:03:55.436Z,18.60
2022-12-05T08:06:25.647Z,18.25
2022-12-05T08:08:53.807Z,15.55
2022-12-05T08:11:27.543Z,15.45
2022-12-05T08:13:55.192Z,13.32
2022-12-05T08:16:26.557Z,13.35
2022-12-05T08:19:00.992Z,14.00
2022-12-05T08:21:28.757Z,14.68
2022-12-05T08:23:56.414Z,14.00
2022-12-05T08:26:35.456Z,13.70
2022-12-05T08:29:04.762Z,11.70
2022-12-05T08:31:34.804Z,11.82
2022-12-05T08:34:02.316Z,11.23
2022-12-05T08:36:33.271Z,13.02
2022-12-05T08:39:04.158Z,12.25
2022-12-05T08:41:31.696Z,12.40
2022-12-05T08:44:03.219Z,12.90
2022-12-05T08:46:32.394Z,13.05
2022-12-05T08:49:00.007Z,10.52
2022-12-05T08:51:27.389Z,11.70
2022-12-05T08:53:56.439Z,13.07
2022-12-05T08:56:27.127Z,14.02
2022-12-05T08:59:02.961Z,12.35
2022-12-05T09:01:33.714Z,12.45
2022-12-05T09:04:02.439Z,12.95
2022-12-05T09:06:30.028Z,14.88
2022-12-05T09:08:59.766Z,13.70
2022-12-05T09:11:29.867Z,14.00
2022-12-05T09:13:58.921Z,14.15
2022-12-05T09:16:37.138Z,13.30
2022-12-05T09:19:08.786Z,13.60
2022-12-05T09:21:36.098Z,12.25
2022-12-05T09:24:05.849Z,14.25
2022-12-05T09:26:33.110Z,14.77
2022-12-05T09:29:02.544Z,15.05
2022-12-05T09:31:30.694Z,16.20
2022-12-05T09:33:58.051Z,14.60
2022-12-05T09:36:27.696Z,14.88
2022-12-05T09:38:56.040Z,15.18
2022-12-05T09:41:52.470Z,15.10
2022-12-05T09:44:52.440Z,15.57
2022-12-05T09:47:54.000Z,15.30
2022-12-05T09:50:26.627Z,15.30
2022-12-05T09:53:09.528Z,18.40
2022-12-05T09:55:43.695Z,20.20
2022-12-05T09:58:30.032Z,23.63
2022-12-05T10:01:08.864Z,36.80
2022-12-05T10:03:49.382Z,23.40
2022-12-05T10:06:25.183Z,25.35
2022-12-05T10:09:13.635Z,17.33
2022-12-05T10:11:55.975Z,14.48
2022-12-05T10:14:54.949Z,16.50
2022-12-05T10:17:56.300Z,18.30
2022-12-05T10:20:32.604Z,16.97
2022-12-05T10:23:06.326Z,21.27
2022-12-05T10:25:34.688Z,16.52
2022-12-05T10:28:07.126Z,15.05
2022-12-05T10:30:36.853Z,14.98
2022-12-05T10:33:14.740Z,14.98
2022-12-05T10:35:44.531Z,14.68
2022-12-05T10:38:26.682Z,14.93
2022-12-05T10:40:58.726Z,13.18
2022-12-05T10:43:31.535Z,19.58
2022-12-05T10:46:00.270Z,18.05
2022-12-05T10:48:28.267Z,23.15
2022-12-05T10:50:58.208Z,21.98
2022-12-05T10:53:29.182Z,16.65
2022-12-05T10:59:00.108Z,17.88
2022-12-05T11:01:28.689Z,18.15
2022-12-05T11:04:13.801Z,17.63
2022-12-05T11:06:53.024Z,24.48
2022-12-05T11:09:24.077Z,22.73
2022-12-05T11:12:05.392Z,17.83
2022-12-05T11:14:36.310Z,19.85
2022-12-05T11:17:05.585Z,19.55
2022-12-05T11:19:32.814Z,19.48
2022-12-05T11:22:00.773Z,17.17
2022-12-05T11:24:29.778Z,19.25
2022-12-05T11:26:59.236Z,18.50
2022-12-05T11:29:32.709Z,20.95
2022-12-05T11:32:02.475Z,17.77
2022-12-05T11:34:44.307Z,23.90
2022-12-05T11:37:25.058Z,20.13
2022-12-05T11:39:54.755Z,18.80
2022-12-05T11:42:24.808Z,18.40
2022-12-05T11:45:05.125Z,20.27
2022-12-05T11:47:55.678Z,18.45
2022-12-05T11:50:35.342Z,18.38
2022-12-05T11:53:08.578Z,18.48
2022-12-05T11:55:46.015Z,18.83
2022-12-05T11:58:34.203Z,17.30
2022-12-05T12:01:06.464Z,17.33
2022-12-05T12:03:39.288Z,17.70
2022-12-05T12:06:24.863Z,18.25
2022-12-05T12:09:12.261Z,18.25
2022-12-05T12:12:04.458Z,16.83
2022-12-05T12:14:43.470Z,17.65
2022-12-05T12:17:29.626Z,15.90
2022-12-05T12:20:15.317Z,17.83
2022-12-05T12:23:09.314Z,15.10
2022-12-05T12:25:41.882Z,14.32
2022-12-05T12:28:19.002Z,17.23
2022-12-05T12:30:58.202Z,13.32
2022-12-05T12:33:35.184Z,13.35
2022-12-05T12:36:40.232Z,15.65
2022-12-05T12:39:21.809Z,10.68
2022-12-05T12:42:05.949Z,9.02
2022-12-05T12:44:51.096Z,7.95
2022-12-05T12:48:00.550Z,8.90
2022-12-05T12:50:36.644Z,11.60
2022-12-05T12:53:37.603Z,10.00
2022-12-05T12:56:36.630Z,13.65
2022-12-05T12:59:37.566Z,10.00
2022-12-05T13:02:29.265Z,11.30
2022-12-05T13:05:15.451Z,9.52
2022-12-05T13:07:53.635Z,9.02
2022-12-05T13:10:42.030Z,9.60
2022-12-05T13:13:17.027Z,8.95
2022-12-05T13:16:00.832Z,10.15
2022-12-05T13:18:30.407Z,10.05
2022-12-05T13:21:03.278Z,10.48
2022-12-05T13:23:34.069Z,10.00
2022-12-05T13:26:07.745Z,9.53
2022-12-05T13:28:58.888Z,12.93
2022-12-05T13:31:44.032Z,15.23
2022-12-05T13:34:29.537Z,10.88
2022-12-05T13:37:17.712Z,12.95
2022-12-05T13:40:16.429Z,11.05
2022-12-05T13:42:44.135Z,11.18
2022-12-05T13:45:18.728Z,13.15
2022-12-05T13:47:59.161Z,13.23
2022-12-05T13:50:54.164Z,13.20
2022-12-05T13:53:37.616Z,13.43
2022-12-05T13:56:30.203Z,12.13
2022-12-05T13:59:01.565Z,11.10
2022-12-05T14:01:46.493Z,11.23
2022-12-05T14:04:44.887Z,15.63
2022-12-05T14:07:12.559Z,13.30
2022-12-05T14:09:57.232Z,13.38
2022-12-05T14:12:24.692Z,12.13
2022-12-05T14:15:00.702Z,13.50
2022-12-05T14:17:30.041Z,13.02
2022-12-05T14:19:59.895Z,15.13
2022-12-05T14:22:43.038Z,13.45
2022-12-05T14:25:35.041Z,12.27
2022-12-05T14:28:18.391Z,12.52
2022-12-05T14:31:11.597Z,13.98
2022-12-05T14:33:39.015Z,13.68
2022-12-05T14:36:09.054Z,14.45
2022-12-05T14:38:38.008Z,12.43
2022-12-05T14:41:32.280Z,14.40
2022-12-05T14:44:05.091Z,14.25
2022-12-05T14:46:36.239Z,13.43
2022-12-05T14:49:46.966Z,12.95
2022-12-05T14:52:24.816Z,13.40
2022-12-05T14:55:18.704Z,13.38
2022-12-05T14:57:50.365Z,13.88
2022-12-05T15:00:29.890Z,20.75
2022-12-05T15:02:57.867Z,16.63
2022-12-05T15:05:30.925Z,14.25
2022-12-05T15:08:00.360Z,14.20
2022-12-05T15:10:38.822Z,12.80
2022-12-05T15:13:14.475Z,13.15
2022-12-05T15:15:49.755Z,13.43
2022-12-05T15:18:30.120Z,13.75
2022-12-05T15:21:22.392Z,14.55
2022-12-05T15:23:56.242Z,14.55
2022-12-05T15:26:49.872Z,13.07
2022-12-05T15:29:26.667Z,14.40
2022-12-05T15:32:00.089Z,14.60
2022-12-05T15:34:47.861Z,13.38
2022-12-05T15:37:20.738Z,12.20
2022-12-05T15:39:50.982Z,14.30
2022-12-05T15:42:24.743Z,16.38
2022-12-05T15:45:13.728Z,14.85
2022-12-05T15:47:43.359Z,15.27
2022-12-05T15:50:58.843Z,13.95
2022-12-05T15:53:46.849Z,17.48
2022-12-05T15:56:35.742Z,14.30
2022-12-05T15:59:14.141Z,18.02
2022-12-05T16:01:52.472Z,16.08
2022-12-05T16:04:33.295Z,16.35
2022-12-05T16:07:08.068Z,18.45
2022-12-05T16:09:40.379Z,15.35
2022-12-05T16:12:26.067Z,15.82
2022-12-05T16:15:00.669Z,17.20
2022-12-05T16:17:37.813Z,16.70
2022-12-05T16:20:17.345Z,21.05
2022-12-05T16:22:48.169Z,19.05
2022-12-05T16:25:21.845Z,18.87
2022-12-05T16:28:15.084Z,17.45
2022-12-05T16:30:57.894Z,17.33
2022-12-05T16:33:26.876Z,16.52
2022-12-05T16:35:56.643Z,15.15
2022-12-05T16:38:26.098Z,16.63
2022-12-05T16:41:02.673Z,17.90
2022-12-05T16:43:33.032Z,18.95
2022-12-05T16:46:15.077Z,18.27
2022-12-05T16:49:02.287Z,18.48
2022-12-05T16:51:41.590Z,18.75
2022-12-05T16:54:09.496Z,19.73
2022-12-05T16:56:37.720Z,21.42
2022-12-05T16:59:06.740Z,21.55
2022-12-05T17:01:38.936Z,19.27
2022-12-05T17:04:12.714Z,18.85
2022-12-05T17:06:40.046Z,20.92
2022-12-05T17:09:09.551Z,26.33
2022-12-05T17:11:39.367Z,21.13
2022-12-05T17:14:11.529Z,19.65
2022-12-05T17:16:43.752Z,20.95
2022-12-05T17:19:13.979Z,18.60
2022-12-05T17:21:42.629Z,21.92
2022-12-05T17:24:16.869Z,22.55
2022-12-05T17:26:46.171Z,25.67
2022-12-05T17:29:13.698Z,39.65
2022-12-05T17:31:41.135Z,28.65
2022-12-05T17:34:18.500Z,24.85
2022-12-05T17:36:46.248Z,21.65
2022-12-05T17:39:15.983Z,22.02
2022-12-05T17:41:43.455Z,25.90
2022-12-05T17:44:14.343Z,22.40
2022-12-05T17:46:43.149Z,24.93
2022-12-05T17:49:16.701Z,22.33
2022-12-05T17:52:13.513Z,23.92
2022-12-05T17:54:31.879Z,26.85
2022-12-05T17:56:59.174Z,21.38
2022-12-05T17:59:28.544Z,22.55
2022-12-05T18:01:58.251Z,21.63
2022-12-05T18:04:26.699Z,22.00
2022-12-05T18:06:53.998Z,19.85
2022-12-05T18:09:21.528Z,19.95
2022-12-05T18:11:51.306Z,24.40
2022-12-05T18:14:18.574Z,21.90
2022-12-05T18:16:48.040Z,20.77
2022-12-05T18:19:15.359Z,18.48
2022-12-05T18:21:42.632Z,17.85
2022-12-05T18:24:10.417Z,19.48
2022-12-05T18:26:40.326Z,17.77
2022-12-05T18:29:07.578Z,20.85
2022-12-05T18:31:35.224Z,17.98
2022-12-05T18:34:02.615Z,19.05
2022-12-05T18:36:29.882Z,20.63
2022-12-05T18:38:57.819Z,17.55
2022-12-05T18:41:27.236Z,19.55
2022-12-05T18:43:54.904Z,18.05
2022-12-05T18:46:22.319Z,17.92
2022-12-05T18:48:49.678Z,15.48
2022-12-05T18:51:20.598Z,17.05
2022-12-05T18:53:53.376Z,16.75
2022-12-05T18:56:34.596Z,16.70
2022-12-05T18:59:07.594Z,16.90
2022-12-05T19:01:39.749Z,17.60
2022-12-05T19:04:08.702Z,21.15
2022-12-05T19:06:37.124Z,20.02
2022-12-05T19:09:09.235Z,21.92
2022-12-05T19:11:41.742Z,20.80
2022-12-05T19:14:13.489Z,20.63
2022-12-05T19:16:43.300Z,21.95
2022-12-05T19:19:14.369Z,21.33
2022-12-05T19:21:42.366Z,16.88
2022-12-05T19:24:15.478Z,18.60
2022-12-05T19:26:43.303Z,17.27
2022-12-05T19:29:14.331Z,16.50
2022-12-05T19:31:41.837Z,18.20
2022-12-05T19:34:09.732Z,19.75
2022-12-05T19:36:42.820Z,19.98
2022-12-05T19:39:15.489Z,16.13
2022-12-05T19:41:42.910Z,15.75
2022-12-05T19:44:10.520Z,14.90
2022-12-05T19:46:37.851Z,14.82
2022-12-05T19:49:11.030Z,16.35
2022-12-05T19:51:38.929Z,15.07
2022-12-05T19:54:10.231Z,17.58
2022-12-05T19:56:38.008Z,15.80
2022-12-05T19:59:06.514Z,18.80
2022-12-05T20:01:42.834Z,15.30
2022-12-05T20:04:16.309Z,16.73
2022-12-05T20:06:46.445Z,16.63
2022-12-05T20:09:16.443Z,18.10
2022-12-05T20:11:47.176Z,14.63
2022-12-05T20:14:18.863Z,13.77
2022-12-05T20:16:46.427Z,18.70
2022-12-05T20:19:15.997Z,42.78
2022-12-05T20:21:44.526Z,20.30
2022-12-05T20:24:12.468Z,14.70
2022-12-05T20:26:42.123Z,19.75
2022-12-05T20:29:12.303Z,19.58
2022-12-05T20:31:44.017Z,21.50
2022-12-05T20:34:13.726Z,20.00
2022-12-05T20:36:41.596Z,14.48
2022-12-05T20:39:14.928Z,12.95
2022-12-05T20:41:45.052Z,17.88
2022-12-05T20:44:15.217Z,16.77
2022-12-05T20:46:42.741Z,17.98
2022-12-05T20:49:11.726Z,17.90
2022-12-05T20:51:41.468Z,21.40
2022-12-05T20:54:08.755Z,18.17
2022-12-05T20:56:36.308Z,19.15
2022-12-05T20:59:08.218Z,18.13
2022-12-05T21:01:37.587Z,16.17
2022-12-05T21:04:07.438Z,15.88
2022-12-05T21:06:37.307Z,12.70
2022-12-05T21:09:15.112Z,13.57
2022-12-05T21:11:43.043Z,13.35
2022-12-05T21:14:10.910Z,12.25
2022-12-05T21:16:40.797Z,12.52
2022-12-05T21:19:08.802Z,13.18
2022-12-05T21:21:36.145Z,12.77
2022-12-05T21:24:04.830Z,11.98
2022-12-05T21:26:34.226Z,13.77
2022-12-05T21:29:05.048Z,11.15
2022-12-05T21:31:42.201Z,12.70
2022-12-05T21:34:20.369Z,11.23
2022-12-05T21:36:50.209Z,10.10
2022-12-05T21:39:17.766Z,11.15
2022-12-05T21:41:45.031Z,10.38
2022-12-05T21:44:14.792Z,12.45
2022-12-05T21:46:42.261Z,10.15
2022-12-05T21:49:09.675Z,9.18
2022-12-05T21:51:36.997Z,8.30
2022-12-05T21:54:06.463Z,8.57
2022-12-05T21:56:33.955Z,10.27
2022-12-05T21:59:01.308Z,8.30
2022-12-05T22:01:29.166Z,8.95
2022-12-05T22:03:59.519Z,9.85
2022-12-05T22:06:33.699Z,9.35
2022-12-05T22:09:01.433Z,8.00
2022-12-05T22:11:28.764Z,6.05
2022-12-05T22:13:56.149Z,6.75
2022-12-05T22:16:32.494Z,8.07
2022-12-05T22:19:00.558Z,6.90
2022-12-05T22:21:28.156Z,7.07
2022-12-05T22:23:57.901Z,6.53
2022-12-05T22:26:28.868Z,6.57
2022-12-05T22:28:56.700Z,6.53
2022-12-05T22:31:24.708Z,5.38
2022-12-05T22:33:52.374Z,5.22
2022-12-05T22:36:20.301Z,5.40
2022-12-05T22:38:48.293Z,6.10
2022-12-05T22:41:26.996Z,5.45
2022-12-05T22:44:00.995Z,4.35
2022-12-05T22:46:29.196Z,4.28
2022-12-05T22:48:56.982Z,4.82
2022-12-05T22:51:26.622Z,5.65
2022-12-05T22:53:56.471Z,4.80
2022-12-05T22:56:25.894Z,5.03
2022-12-05T22:58:55.376Z,3.58
2022-12-05T23:01:26.931Z,3.95
2022-12-05T23:04:02.646Z,4.63
2022-12-05T23:06:31.388Z,3.33
2022-12-05T23:08:59.652Z,4.63
2022-12-05T23:11:30.804Z,3.33
2022-12-05T23:14:02.304Z,3.08
2022-12-05T23:19:02.638Z,3.15
2022-12-05T23:21:33.048Z,4.35
2022-12-05T23:24:03.428Z,2.47
2022-12-05T23:26:33.651Z,2.60
2022-12-05T23:29:01.126Z,2.08
2022-12-05T23:31:28.632Z,2.08
2022-12-05T23:34:02.696Z,1.90
2022-12-05T23:36:31.807Z,1.60
2022-12-05T23:38:59.525Z,1.88
2022-12-05T23:41:27.468Z,1.33
2022-12-05T23:43:55.295Z,1.75
2022-12-05T23:46:24.852Z,1.50
2022-12-05T23:48:52.550Z,2.65
2022-12-05T23:51:25.669Z,1.67
2022-12-05T23:53:55.460Z,2.55
2022-12-05T23:56:25.410Z,1.40
2022-12-05T23:58:54.225Z,1.95
